Somerdale, Ohio
Current Conditions -  °F | °C
As of 2:53 PM on Wednesday 26 Nov 2014 (Local Time) from KPHD Reporting Station
Overcast Overcast  
Wind Chill: 37°   Ceiling: 2500
Heat Index: 40°   Visibility: 10mi
Dew Point: 28°   Wind: 5mph
Humidity: 63%   Direction: 320°NW
Pressure: 30.02"   Gusts: NA
Location:  40.57°N, 81.36°W
Report Text: KPHD 261953Z AUTO 32004KT 10SM OVC025 04/M02 A3002 RMK AO2 SLP173 T00441022
Loading
Personal Weather Stations






























Interactive Weather Map New forecast layout! Learn more

10-Day Weather Forecast

Advertisements
Track Severe Weather on mobile